Sunday, December 16, 2018, 1:05 PM EST
Back to Local

KLBE, Latrobe / Westmorland

Location: Latrobe, PA, United States Lat: 40.283
Local Time: 1:05 PM EST (18:05 GMT) Lon: -79.4
Time Zone: US/Eastern Elev: 1184 ft

Show me the last for .
Show Decoded

2018-12-16 12:53 METAR KLBE 161753Z 36006KT 7SM -DZ OVC012 05/05 A2990 =
2018-12-16 11:50 METAR KLBE 161650Z 01005G15KT 10SM BKN015 05/05 A2991 =
2018-12-16 10:50 METAR KLBE 161550Z 03008KT 8SM BKN007 OVC015 04/04 A2992 =
2018-12-16 09:50 METAR KLBE 161450Z 06010KT 10SM OVC014 04/04 A2992 =
2018-12-16 08:50 METAR KLBE 161350Z 04010KT 10SM OVC025 04/04 A2992 =
2018-12-16 07:50 METAR KLBE 161250Z 03004KT 8SM OVC030 04/04 A2991 =
2018-12-16 06:50 METAR KLBE 161150Z 03005KT 4SM BR SCT012 OVC040 04/04 A2990 =
2018-12-16 05:55 METAR KLBE 161055Z AUTO 01006KT 3SM BR FEW017 OVC025 04/04 A2990 RMK AO2 =
2018-12-16 05:35 METAR KLBE 161035Z AUTO 01008KT 8SM FEW018 OVC026 04/05 A2990 RMK AO2 =
2018-12-16 05:15 METAR KLBE 161015Z AUTO 02006KT 10SM SCT019 OVC025 05/05 A2990 RMK AO2 =
2018-12-16 04:55 METAR KLBE 160955Z AUTO 01007KT 9SM OVC019 05/05 A2991 RMK AO2 =
2018-12-16 04:35 METAR KLBE 160935Z AUTO 02006KT 10SM BKN017 OVC022 05/05 A2991 RMK AO2 =
2018-12-16 04:15 METAR KLBE 160915Z AUTO 02006KT 10SM BKN015 OVC023 05/05 A2991 RMK AO2 =
2018-12-16 03:55 METAR KLBE 160855Z AUTO 01006KT 7SM BKN015 OVC021 05/05 A2991 RMK AO2 =
2018-12-16 03:35 METAR KLBE 160835Z AUTO 01006KT 5SM -RA BKN016 OVC021 05/05 A2991 RMK AO2 =
2018-12-16 03:15 METAR KLBE 160815Z AUTO 01005KT 5SM BR BKN015 OVC020 05/05 A2992 RMK AO2 =
2018-12-16 02:55 METAR KLBE 160755Z AUTO 02008KT 5SM -RA OVC018 05/05 A2992 RMK AO2 =
2018-12-16 02:35 METAR KLBE 160735Z AUTO 02009KT 5SM -RA BKN015 OVC021 05/05 A2992 RMK AO2 =
2018-12-16 02:15 METAR KLBE 160715Z AUTO 01008KT 4SM -RA BKN015 OVC020 05/05 A2992 RMK AO2 =
2018-12-16 01:55 METAR KLBE 160655Z AUTO 01007KT 6SM BR OVC016 05/05 A2992 RMK AO2 =
2018-12-16 01:35 METAR KLBE 160635Z AUTO 03006KT 6SM BR OVC016 06/06 A2992 RMK AO2 =
2018-12-16 01:15 METAR KLBE 160615Z AUTO 01007KT 5SM -RA BKN016 OVC020 06/06 A2992 RMK AO2 =
2018-12-16 00:55 METAR KLBE 160555Z AUTO 01008KT 5SM -RA BKN015 OVC022 06/06 A2992 RMK AO2 =
2018-12-16 00:35 METAR KLBE 160535Z AUTO 02008KT 6SM -RA OVC016 06/06 A2992 RMK AO2 =
2018-12-16 00:15 METAR KLBE 160515Z AUTO 04007KT 5SM -RA OVC016 06/06 A2992 RMK AO2 =
2018-12-15 23:55 METAR KLBE 160455Z AUTO 01011KT 8SM -DZ OVC016 07/06 A2992 RMK AO2 =
2018-12-15 23:35 METAR KLBE 160435Z AUTO 01010KT 9SM -RA OVC014 07/07 A2992 RMK AO2 =
2018-12-15 23:15 METAR KLBE 160415Z AUTO 02011G18KT 6SM -DZ OVC014 07/07 A2993 RMK AO2 =
2018-12-15 22:55 METAR KLBE 160355Z AUTO 01011KT 9SM OVC015 07/07 A2994 RMK AO2 =
2018-12-15 22:35 METAR KLBE 160335Z AUTO 02010KT 10SM OVC016 07/07 A2995 RMK AO2 =
2018-12-15 22:15 METAR KLBE 160315Z AUTO 02010G17KT 9SM -DZ OVC016 08/07 A2995 RMK AO2 =
2018-12-15 21:50 METAR KLBE 160250Z 04015KT 8SM OVC016 08/08 A2996 =
2018-12-15 20:50 METAR KLBE 160150Z 05010G20KT 8SM OVC019 08/08 A2996 =
2018-12-15 19:50 METAR KLBE 160050Z 05014KT 8SM BKN018 08/08 A2998 =
2018-12-15 18:50 METAR KLBE 152350Z 03010G20KT 4SM -RA BKN012 08/08 A2999 =
2018-12-15 17:50 METAR KLBE 152250Z 04012G22KT 8SM BKN018 09/09 A2999 =
2018-12-15 16:50 METAR KLBE 152150Z 03010KT 8SM SCT016 BKN037 09/09 A2998 =
2018-12-15 15:50 METAR KLBE 152050Z 02010KT 6SM -RA SCT015 BKN060 10/10 A2998 =
2018-12-15 14:45 METAR KLBE 151945Z 04008KT 10SM BKN040 OVC050 10/10 A2998 =
2018-12-15 13:45 METAR KLBE 151845Z 08015G22KT 10SM FEW045 OVC075 09/09 A2998 =

Support USWX by starting your Amazon purchase here.